sensor_id;sensor_type;location;lat;lon;timestamp;temperature;humidity
55369;DHT22;41247;49.736;8.752;2023-02-16T00:03:22;-0.50;99.90
55369;DHT22;41247;49.736;8.752;2023-02-16T00:07:03;-0.50;99.90
55369;DHT22;41247;49.736;8.752;2023-02-16T00:10:44;-0.60;99.90
55369;DHT22;41247;49.736;8.752;2023-02-16T00:14:25;-0.60;99.90
55369;DHT22;41247;49.736;8.752;2023-02-16T00:18:16;-0.70;99.90
55369;DHT22;41247;49.736;8.752;2023-02-16T00:22:16;-0.70;99.90
55369;DHT22;41247;49.736;8.752;2023-02-16T00:26:28;-0.80;99.90
55369;DHT22;41247;49.736;8.752;2023-02-16T00:31:02;-0.80;99.90
55369;DHT22;41247;49.736;8.752;2023-02-16T00:34:43;-0.90;99.90
55369;DHT22;41247;49.736;8.752;2023-02-16T00:38:23;-0.90;99.90
55369;DHT22;41247;49.736;8.752;2023-02-16T00:42:20;-0.90;99.90
55369;DHT22;41247;49.736;8.752;2023-02-16T00:46:01;-1.00;99.90
55369;DHT22;41247;49.736;8.752;2023-02-16T00:49:42;-1.00;99.90
55369;DHT22;41247;49.736;8.752;2023-02-16T00:53:23;-1.00;99.90
55369;DHT22;41247;49.736;8.752;2023-02-16T00:57:03;-0.90;99.90
55369;DHT22;41247;49.736;8.752;2023-02-16T01:00:57;-0.90;99.90
55369;DHT22;41247;49.736;8.752;2023-02-16T01:04:41;-0.80;99.90
55369;DHT22;41247;49.736;8.752;2023-02-16T01:08:22;-0.90;99.90
55369;DHT22;41247;49.736;8.752;2023-02-16T01:12:08;-0.90;99.90
55369;DHT22;41247;49.736;8.752;2023-02-16T01:15:51;-0.90;99.90
55369;DHT22;41247;49.736;8.752;2023-02-16T01:19:31;-0.80;99.90
55369;DHT22;41247;49.736;8.752;2023-02-16T01:23:12;-0.70;99.90
55369;DHT22;41247;49.736;8.752;2023-02-16T01:26:53;-0.70;99.90
55369;DHT22;41247;49.736;8.752;2023-02-16T01:30:33;-0.70;99.90
55369;DHT22;41247;49.736;8.752;2023-02-16T01:34:14;-0.70;99.90
55369;DHT22;41247;49.736;8.752;2023-02-16T01:37:55;-0.70;99.90
55369;DHT22;41247;49.736;8.752;2023-02-16T01:45:37;-0.80;99.90
55369;DHT22;41247;49.736;8.752;2023-02-16T01:49:20;-0.70;99.90
55369;DHT22;41247;49.736;8.752;2023-02-16T01:53:09;-0.70;99.90
55369;DHT22;41247;49.736;8.752;2023-02-16T01:57:03;-0.70;99.90
55369;DHT22;41247;49.736;8.752;2023-02-16T02:04:58;-0.60;99.90
55369;DHT22;41247;49.736;8.752;2023-02-16T02:09:10;-0.70;99.90
55369;DHT22;41247;49.736;8.752;2023-02-16T02:13:10;-0.70;99.90
55369;DHT22;41247;49.736;8.752;2023-02-16T02:17:11;-0.70;99.90
55369;DHT22;41247;49.736;8.752;2023-02-16T02:34:03;-0.50;99.90
55369;DHT22;41247;49.736;8.752;2023-02-16T02:38:21;-0.50;99.90
55369;DHT22;41247;49.736;8.752;2023-02-16T02:42:30;-0.50;99.90
55369;DHT22;41247;49.736;8.752;2023-02-16T02:46:24;-0.40;99.90
55369;DHT22;41247;49.736;8.752;2023-02-16T02:50:40;-0.50;99.90
55369;DHT22;41247;49.736;8.752;2023-02-16T02:54:38;-0.50;99.90
55369;DHT22;41247;49.736;8.752;2023-02-16T02:58:21;-0.40;99.90
55369;DHT22;41247;49.736;8.752;2023-02-16T03:02:02;-0.40;99.90
55369;DHT22;41247;49.736;8.752;2023-02-16T03:06:13;-0.40;99.90
55369;DHT22;41247;49.736;8.752;2023-02-16T03:09:57;-0.40;99.90
55369;DHT22;41247;49.736;8.752;2023-02-16T03:13:42;-0.40;99.90
55369;DHT22;41247;49.736;8.752;2023-02-16T03:17:32;-0.50;99.90
55369;DHT22;41247;49.736;8.752;2023-02-16T03:21:14;-0.50;99.90
55369;DHT22;41247;49.736;8.752;2023-02-16T03:24:55;-0.40;99.90
55369;DHT22;41247;49.736;8.752;2023-02-16T03:28:38;-0.40;99.90
55369;DHT22;41247;49.736;8.752;2023-02-16T03:32:20;-0.40;99.90
55369;DHT22;41247;49.736;8.752;2023-02-16T03:36:02;-0.50;99.90
55369;DHT22;41247;49.736;8.752;2023-02-16T03:39:43;-0.50;99.90
55369;DHT22;41247;49.736;8.752;2023-02-16T03:43:26;-0.60;99.90
55369;DHT22;41247;49.736;8.752;2023-02-16T03:47:07;-0.70;99.90
55369;DHT22;41247;49.736;8.752;2023-02-16T03:50:47;-0.70;99.90
55369;DHT22;41247;49.736;8.752;2023-02-16T03:54:28;-0.70;99.90
55369;DHT22;41247;49.736;8.752;2023-02-16T03:58:17;-0.70;99.90
55369;DHT22;41247;49.736;8.752;2023-02-16T04:01:59;-0.60;99.90
55369;DHT22;41247;49.736;8.752;2023-02-16T04:05:40;-0.60;99.90
55369;DHT22;41247;49.736;8.752;2023-02-16T04:09:21;-0.60;99.90
55369;DHT22;41247;49.736;8.752;2023-02-16T04:13:01;-0.60;99.90
55369;DHT22;41247;49.736;8.752;2023-02-16T04:16:42;-0.60;99.90
55369;DHT22;41247;49.736;8.752;2023-02-16T04:20:26;-0.70;99.90
55369;DHT22;41247;49.736;8.752;2023-02-16T04:24:09;-0.80;99.90
55369;DHT22;41247;49.736;8.752;2023-02-16T04:27:50;-0.80;99.90
55369;DHT22;41247;49.736;8.752;2023-02-16T04:31:31;-0.80;99.90
55369;DHT22;41247;49.736;8.752;2023-02-16T04:35:12;-0.80;99.90
55369;DHT22;41247;49.736;8.752;2023-02-16T04:38:53;-0.80;99.90
55369;DHT22;41247;49.736;8.752;2023-02-16T04:42:33;-0.40;99.90
55369;DHT22;41247;49.736;8.752;2023-02-16T04:46:14;0.20;99.90
55369;DHT22;41247;49.736;8.752;2023-02-16T04:49:55;0.40;99.90
55369;DHT22;41247;49.736;8.752;2023-02-16T04:53:35;0.60;99.90
55369;DHT22;41247;49.736;8.752;2023-02-16T04:57:16;1.00;99.90
55369;DHT22;41247;49.736;8.752;2023-02-16T05:00:57;1.40;99.90
55369;DHT22;41247;49.736;8.752;2023-02-16T05:04:38;1.70;99.90
55369;DHT22;41247;49.736;8.752;2023-02-16T05:08:18;2.00;99.90
55369;DHT22;41247;49.736;8.752;2023-02-16T05:11:59;2.40;99.90
55369;DHT22;41247;49.736;8.752;2023-02-16T05:15:39;2.50;99.90
55369;DHT22;41247;49.736;8.752;2023-02-16T05:19:20;2.40;99.90
55369;DHT22;41247;49.736;8.752;2023-02-16T05:23:00;2.30;99.90
55369;DHT22;41247;49.736;8.752;2023-02-16T05:26:41;2.20;99.90
55369;DHT22;41247;49.736;8.752;2023-02-16T05:30:22;2.00;99.90
55369;DHT22;41247;49.736;8.752;2023-02-16T05:34:02;1.90;99.90
55369;DHT22;41247;49.736;8.752;2023-02-16T05:37:43;2.10;99.90
55369;DHT22;41247;49.736;8.752;2023-02-16T05:41:23;2.30;99.90
55369;DHT22;41247;49.736;8.752;2023-02-16T05:45:04;2.30;99.90
55369;DHT22;41247;49.736;8.752;2023-02-16T05:48:45;2.20;99.90
55369;DHT22;41247;49.736;8.752;2023-02-16T05:52:26;2.20;99.90
55369;DHT22;41247;49.736;8.752;2023-02-16T05:56:07;2.50;99.90
55369;DHT22;41247;49.736;8.752;2023-02-16T05:59:47;2.70;99.90
55369;DHT22;41247;49.736;8.752;2023-02-16T06:03:28;2.80;99.90
55369;DHT22;41247;49.736;8.752;2023-02-16T06:07:09;2.80;99.90
55369;DHT22;41247;49.736;8.752;2023-02-16T06:10:50;2.80;99.90
55369;DHT22;41247;49.736;8.752;2023-02-16T06:14:33;2.80;99.90
55369;DHT22;41247;49.736;8.752;2023-02-16T06:18:13;2.90;99.90
55369;DHT22;41247;49.736;8.752;2023-02-16T06:21:54;3.00;99.90
55369;DHT22;41247;49.736;8.752;2023-02-16T06:25:34;2.90;99.90
55369;DHT22;41247;49.736;8.752;2023-02-16T06:29:15;3.00;99.90
55369;DHT22;41247;49.736;8.752;2023-02-16T06:32:56;3.20;99.90
55369;DHT22;41247;49.736;8.752;2023-02-16T06:36:36;3.30;99.90
55369;DHT22;41247;49.736;8.752;2023-02-16T06:40:17;3.30;99.90
55369;DHT22;41247;49.736;8.752;2023-02-16T06:44:04;3.30;99.90
55369;DHT22;41247;49.736;8.752;2023-02-16T06:47:46;3.20;99.90
55369;DHT22;41247;49.736;8.752;2023-02-16T06:51:26;3.10;99.90
55369;DHT22;41247;49.736;8.752;2023-02-16T06:55:07;2.90;99.90
55369;DHT22;41247;49.736;8.752;2023-02-16T06:58:48;2.70;99.90
55369;DHT22;41247;49.736;8.752;2023-02-16T07:02:29;2.50;99.90
55369;DHT22;41247;49.736;8.752;2023-02-16T07:06:10;2.30;99.90
55369;DHT22;41247;49.736;8.752;2023-02-16T07:09:50;2.10;99.90
55369;DHT22;41247;49.736;8.752;2023-02-16T07:13:31;1.90;99.90
55369;DHT22;41247;49.736;8.752;2023-02-16T07:17:12;1.80;99.90
55369;DHT22;41247;49.736;8.752;2023-02-16T07:20:53;1.60;99.90
55369;DHT22;41247;49.736;8.752;2023-02-16T07:29:02;1.40;99.90
55369;DHT22;41247;49.736;8.752;2023-02-16T07:37:43;1.20;99.90
55369;DHT22;41247;49.736;8.752;2023-02-16T07:41:48;1.20;99.90
55369;DHT22;41247;49.736;8.752;2023-02-16T07:45:50;1.20;99.90
55369;DHT22;41247;49.736;8.752;2023-02-16T07:49:58;1.20;99.90
55369;DHT22;41247;49.736;8.752;2023-02-16T07:54:01;1.50;99.90
55369;DHT22;41247;49.736;8.752;2023-02-16T07:57:43;2.00;99.90
55369;DHT22;41247;49.736;8.752;2023-02-16T08:01:57;2.30;99.90
55369;DHT22;41247;49.736;8.752;2023-02-16T08:05:38;2.70;99.90
55369;DHT22;41247;49.736;8.752;2023-02-16T08:09:18;3.10;99.90
55369;DHT22;41247;49.736;8.752;2023-02-16T08:12:59;3.50;99.90
55369;DHT22;41247;49.736;8.752;2023-02-16T08:16:39;3.80;99.90
55369;DHT22;41247;49.736;8.752;2023-02-16T08:20:20;4.10;99.90
55369;DHT22;41247;49.736;8.752;2023-02-16T08:24:03;4.40;99.90
55369;DHT22;41247;49.736;8.752;2023-02-16T08:27:44;4.50;99.90
55369;DHT22;41247;49.736;8.752;2023-02-16T08:31:27;4.70;99.90
55369;DHT22;41247;49.736;8.752;2023-02-16T08:35:08;4.90;99.90
55369;DHT22;41247;49.736;8.752;2023-02-16T08:38:50;5.00;99.90
55369;DHT22;41247;49.736;8.752;2023-02-16T08:42:32;5.00;99.90
55369;DHT22;41247;49.736;8.752;2023-02-16T08:46:13;5.10;99.90
55369;DHT22;41247;49.736;8.752;2023-02-16T08:49:54;5.10;99.90
55369;DHT22;41247;49.736;8.752;2023-02-16T08:53:35;5.10;99.90
55369;DHT22;41247;49.736;8.752;2023-02-16T08:57:16;5.00;99.90
55369;DHT22;41247;49.736;8.752;2023-02-16T09:00:56;4.80;99.90
55369;DHT22;41247;49.736;8.752;2023-02-16T09:04:37;4.70;99.90
55369;DHT22;41247;49.736;8.752;2023-02-16T09:08:18;4.60;99.90
55369;DHT22;41247;49.736;8.752;2023-02-16T09:11:59;4.50;99.90
55369;DHT22;41247;49.736;8.752;2023-02-16T09:15:40;4.60;99.90
55369;DHT22;41247;49.736;8.752;2023-02-16T09:19:22;4.60;99.90
55369;DHT22;41247;49.736;8.752;2023-02-16T09:23:05;4.70;99.90
55369;DHT22;41247;49.736;8.752;2023-02-16T09:26:45;4.90;99.90
55369;DHT22;41247;49.736;8.752;2023-02-16T09:30:26;5.30;99.90
55369;DHT22;41247;49.736;8.752;2023-02-16T09:34:21;5.50;99.90
55369;DHT22;41247;49.736;8.752;2023-02-16T09:38:02;5.70;99.90
55369;DHT22;41247;49.736;8.752;2023-02-16T09:46:03;5.90;99.90
55369;DHT22;41247;49.736;8.752;2023-02-16T09:49:48;6.10;99.90
55369;DHT22;41247;49.736;8.752;2023-02-16T09:53:34;6.40;99.90
55369;DHT22;41247;49.736;8.752;2023-02-16T10:01:47;6.60;99.90
55369;DHT22;41247;49.736;8.752;2023-02-16T10:05:55;6.70;99.90
55369;DHT22;41247;49.736;8.752;2023-02-16T10:09:44;6.90;99.90
55369;DHT22;41247;49.736;8.752;2023-02-16T10:13:40;7.10;99.90
55369;DHT22;41247;49.736;8.752;2023-02-16T10:21:20;7.30;99.90
55369;DHT22;41247;49.736;8.752;2023-02-16T10:29:19;7.40;99.90
55369;DHT22;41247;49.736;8.752;2023-02-16T10:37:38;7.60;99.90
55369;DHT22;41247;49.736;8.752;2023-02-16T10:41:38;7.90;99.90
55369;DHT22;41247;49.736;8.752;2023-02-16T10:45:36;8.20;99.90
55369;DHT22;41247;49.736;8.752;2023-02-16T10:49:31;8.50;99.90
55369;DHT22;41247;49.736;8.752;2023-02-16T10:53:28;8.70;99.90
55369;DHT22;41247;49.736;8.752;2023-02-16T10:57:27;8.70;99.90
55369;DHT22;41247;49.736;8.752;2023-02-16T11:01:25;8.60;99.90
55369;DHT22;41247;49.736;8.752;2023-02-16T11:05:32;8.50;99.90
55369;DHT22;41247;49.736;8.752;2023-02-16T11:09:17;8.40;99.90
55369;DHT22;41247;49.736;8.752;2023-02-16T11:13:37;8.30;99.90
55369;DHT22;41247;49.736;8.752;2023-02-16T11:17:19;8.20;99.90
55369;DHT22;41247;49.736;8.752;2023-02-16T11:21:01;8.40;99.90
55369;DHT22;41247;49.736;8.752;2023-02-16T11:24:42;8.40;99.90
55369;DHT22;41247;49.736;8.752;2023-02-16T11:28:47;8.50;99.90
55369;DHT22;41247;49.736;8.752;2023-02-16T11:32:32;8.50;99.90
55369;DHT22;41247;49.736;8.752;2023-02-16T11:36:26;8.70;99.90
55369;DHT22;41247;49.736;8.752;2023-02-16T11:40:28;9.00;99.90
55369;DHT22;41247;49.736;8.752;2023-02-16T11:44:28;9.30;99.90
55369;DHT22;41247;49.736;8.752;2023-02-16T11:48:25;9.70;99.90
55369;DHT22;41247;49.736;8.752;2023-02-16T11:52:22;9.90;99.90
55369;DHT22;41247;49.736;8.752;2023-02-16T11:56:24;10.00;99.90
55369;DHT22;41247;49.736;8.752;2023-02-16T12:00:18;10.00;99.90
55369;DHT22;41247;49.736;8.752;2023-02-16T12:08:40;10.00;99.90
55369;DHT22;41247;49.736;8.752;2023-02-16T12:13:14;9.80;99.90
55369;DHT22;41247;49.736;8.752;2023-02-16T12:21:20;10.10;99.90
55369;DHT22;41247;49.736;8.752;2023-02-16T12:25:38;10.20;99.90
55369;DHT22;41247;49.736;8.752;2023-02-16T12:46:35;9.70;99.90
55369;DHT22;41247;49.736;8.752;2023-02-16T12:50:21;9.70;99.90
55369;DHT22;41247;49.736;8.752;2023-02-16T12:54:11;9.80;99.90
55369;DHT22;41247;49.736;8.752;2023-02-16T12:58:18;10.00;99.90
55369;DHT22;41247;49.736;8.752;2023-02-16T13:02:04;10.00;99.90
55369;DHT22;41247;49.736;8.752;2023-02-16T13:06:13;10.00;99.90
55369;DHT22;41247;49.736;8.752;2023-02-16T13:10:27;10.10;99.90
55369;DHT22;41247;49.736;8.752;2023-02-16T13:14:26;10.00;99.90
55369;DHT22;41247;49.736;8.752;2023-02-16T13:18:25;10.00;99.90
55369;DHT22;41247;49.736;8.752;2023-02-16T13:26:39;9.80;99.90
55369;DHT22;41247;49.736;8.752;2023-02-16T13:31:04;9.80;99.90
55369;DHT22;41247;49.736;8.752;2023-02-16T13:39:43;9.60;99.90
55369;DHT22;41247;49.736;8.752;2023-02-16T13:43:59;9.60;99.90
55369;DHT22;41247;49.736;8.752;2023-02-16T13:47:43;9.60;99.90
55369;DHT22;41247;49.736;8.752;2023-02-16T13:51:25;9.60;99.90
55369;DHT22;41247;49.736;8.752;2023-02-16T14:14:44;9.20;99.90
55369;DHT22;41247;49.736;8.752;2023-02-16T14:18:42;9.20;99.90
55369;DHT22;41247;49.736;8.752;2023-02-16T14:22:39;9.30;99.90
55369;DHT22;41247;49.736;8.752;2023-02-16T14:26:31;9.30;99.90
55369;DHT22;41247;49.736;8.752;2023-02-16T14:34:16;9.40;99.90
55369;DHT22;41247;49.736;8.752;2023-02-16T14:38:06;9.60;99.90
55369;DHT22;41247;49.736;8.752;2023-02-16T14:42:06;9.80;99.90
55369;DHT22;41247;49.736;8.752;2023-02-16T14:46:36;9.90;99.90
55369;DHT22;41247;49.736;8.752;2023-02-16T14:50:40;9.90;99.90
55369;DHT22;41247;49.736;8.752;2023-02-16T14:58:55;10.00;99.90
55369;DHT22;41247;49.736;8.752;2023-02-16T15:02:54;10.10;99.90
55369;DHT22;41247;49.736;8.752;2023-02-16T15:06:43;10.10;99.90
55369;DHT22;41247;49.736;8.752;2023-02-16T15:10:27;10.10;99.90
55369;DHT22;41247;49.736;8.752;2023-02-16T15:14:09;10.00;99.90
55369;DHT22;41247;49.736;8.752;2023-02-16T15:17:50;9.90;99.90
55369;DHT22;41247;49.736;8.752;2023-02-16T15:21:31;9.90;99.90
55369;DHT22;41247;49.736;8.752;2023-02-16T15:25:31;9.90;99.90
55369;DHT22;41247;49.736;8.752;2023-02-16T15:33:05;10.00;99.90
55369;DHT22;41247;49.736;8.752;2023-02-16T15:36:50;10.00;99.90
55369;DHT22;41247;49.736;8.752;2023-02-16T15:40:31;10.00;99.90
55369;DHT22;41247;49.736;8.752;2023-02-16T15:44:30;10.00;99.90
55369;DHT22;41247;49.736;8.752;2023-02-16T15:52:19;10.00;99.90
55369;DHT22;41247;49.736;8.752;2023-02-16T15:56:23;9.90;99.90
55369;DHT22;41247;49.736;8.752;2023-02-16T16:00:20;9.90;99.90
55369;DHT22;41247;49.736;8.752;2023-02-16T16:04:14;9.90;99.90
55369;DHT22;41247;49.736;8.752;2023-02-16T16:07:59;9.80;99.90
55369;DHT22;41247;49.736;8.752;2023-02-16T16:11:40;9.80;99.90
55369;DHT22;41247;49.736;8.752;2023-02-16T16:15:25;9.80;99.90
55369;DHT22;41247;49.736;8.752;2023-02-16T16:19:17;9.70;99.90
55369;DHT22;41247;49.736;8.752;2023-02-16T16:23:23;9.70;99.90
55369;DHT22;41247;49.736;8.752;2023-02-16T16:27:08;9.60;99.90
55369;DHT22;41247;49.736;8.752;2023-02-16T16:31:09;9.60;99.90
55369;DHT22;41247;49.736;8.752;2023-02-16T16:34:57;9.50;99.90
55369;DHT22;41247;49.736;8.752;2023-02-16T16:38:38;9.40;99.90
55369;DHT22;41247;49.736;8.752;2023-02-16T16:42:20;9.40;99.90
55369;DHT22;41247;49.736;8.752;2023-02-16T16:46:24;9.30;99.90
55369;DHT22;41247;49.736;8.752;2023-02-16T16:53:56;9.10;99.90
55369;DHT22;41247;49.736;8.752;2023-02-16T16:57:38;9.10;99.90
55369;DHT22;41247;49.736;8.752;2023-02-16T17:01:19;9.10;99.90
55369;DHT22;41247;49.736;8.752;2023-02-16T17:05:00;9.10;99.90
55369;DHT22;41247;49.736;8.752;2023-02-16T17:08:41;9.10;99.90
55369;DHT22;41247;49.736;8.752;2023-02-16T17:12:22;9.10;99.90
55369;DHT22;41247;49.736;8.752;2023-02-16T17:16:06;9.20;99.90
55369;DHT22;41247;49.736;8.752;2023-02-16T17:19:47;9.20;99.90
55369;DHT22;41247;49.736;8.752;2023-02-16T17:23:28;9.20;99.90
55369;DHT22;41247;49.736;8.752;2023-02-16T17:27:09;9.20;99.90
55369;DHT22;41247;49.736;8.752;2023-02-16T17:30:50;9.20;99.90
55369;DHT22;41247;49.736;8.752;2023-02-16T17:34:30;9.30;99.90
55369;DHT22;41247;49.736;8.752;2023-02-16T17:38:16;9.30;99.90
55369;DHT22;41247;49.736;8.752;2023-02-16T17:41:58;9.40;99.90
55369;DHT22;41247;49.736;8.752;2023-02-16T17:45:40;9.50;99.90
55369;DHT22;41247;49.736;8.752;2023-02-16T17:49:20;9.60;99.90
55369;DHT22;41247;49.736;8.752;2023-02-16T17:53:01;9.50;99.90
55369;DHT22;41247;49.736;8.752;2023-02-16T17:56:44;9.50;99.90
55369;DHT22;41247;49.736;8.752;2023-02-16T18:00:25;9.50;99.90
55369;DHT22;41247;49.736;8.752;2023-02-16T18:04:05;9.50;99.90
55369;DHT22;41247;49.736;8.752;2023-02-16T18:07:46;9.50;99.90
55369;DHT22;41247;49.736;8.752;2023-02-16T18:11:26;9.40;99.90
55369;DHT22;41247;49.736;8.752;2023-02-16T18:15:07;9.50;99.90
55369;DHT22;41247;49.736;8.752;2023-02-16T18:18:48;9.50;99.90
55369;DHT22;41247;49.736;8.752;2023-02-16T18:22:28;9.40;99.90
55369;DHT22;41247;49.736;8.752;2023-02-16T18:26:13;9.30;99.90
55369;DHT22;41247;49.736;8.752;2023-02-16T18:29:54;9.30;99.90
55369;DHT22;41247;49.736;8.752;2023-02-16T18:33:35;9.30;99.90
55369;DHT22;41247;49.736;8.752;2023-02-16T18:37:15;9.30;99.90
55369;DHT22;41247;49.736;8.752;2023-02-16T18:40:56;9.30;99.90
55369;DHT22;41247;49.736;8.752;2023-02-16T18:44:37;9.30;99.90
55369;DHT22;41247;49.736;8.752;2023-02-16T18:48:17;9.30;99.90
55369;DHT22;41247;49.736;8.752;2023-02-16T18:51:58;9.30;99.90
55369;DHT22;41247;49.736;8.752;2023-02-16T18:55:38;9.30;99.90
55369;DHT22;41247;49.736;8.752;2023-02-16T18:59:19;9.40;99.90
55369;DHT22;41247;49.736;8.752;2023-02-16T19:03:00;9.50;99.90
55369;DHT22;41247;49.736;8.752;2023-02-16T19:06:40;9.50;99.90
55369;DHT22;41247;49.736;8.752;2023-02-16T19:10:21;9.50;99.90
55369;DHT22;41247;49.736;8.752;2023-02-16T19:14:02;9.60;99.90
55369;DHT22;41247;49.736;8.752;2023-02-16T19:17:42;9.60;99.90
55369;DHT22;41247;49.736;8.752;2023-02-16T19:21:23;9.70;99.90
55369;DHT22;41247;49.736;8.752;2023-02-16T19:25:04;9.70;99.90
55369;DHT22;41247;49.736;8.752;2023-02-16T19:28:46;9.70;99.90
55369;DHT22;41247;49.736;8.752;2023-02-16T19:32:26;9.70;99.90
55369;DHT22;41247;49.736;8.752;2023-02-16T19:36:09;9.80;99.90
55369;DHT22;41247;49.736;8.752;2023-02-16T19:39:51;9.80;99.90
55369;DHT22;41247;49.736;8.752;2023-02-16T19:43:31;9.90;99.90
55369;DHT22;41247;49.736;8.752;2023-02-16T19:47:12;9.90;99.90
55369;DHT22;41247;49.736;8.752;2023-02-16T19:50:57;9.90;99.90
55369;DHT22;41247;49.736;8.752;2023-02-16T19:54:38;10.00;99.90
55369;DHT22;41247;49.736;8.752;2023-02-16T19:58:20;9.90;99.90
55369;DHT22;41247;49.736;8.752;2023-02-16T20:02:01;9.90;99.90
55369;DHT22;41247;49.736;8.752;2023-02-16T20:05:42;9.90;99.90
55369;DHT22;41247;49.736;8.752;2023-02-16T20:09:23;10.00;99.90
55369;DHT22;41247;49.736;8.752;2023-02-16T20:13:03;10.00;99.90
55369;DHT22;41247;49.736;8.752;2023-02-16T20:16:44;10.00;99.90
55369;DHT22;41247;49.736;8.752;2023-02-16T20:20:25;10.00;99.90
55369;DHT22;41247;49.736;8.752;2023-02-16T20:24:06;10.00;99.90
55369;DHT22;41247;49.736;8.752;2023-02-16T20:27:46;10.00;99.90
55369;DHT22;41247;49.736;8.752;2023-02-16T20:31:33;10.00;99.90
55369;DHT22;41247;49.736;8.752;2023-02-16T20:35:16;10.00;99.90
55369;DHT22;41247;49.736;8.752;2023-02-16T20:38:57;9.90;99.90
55369;DHT22;41247;49.736;8.752;2023-02-16T20:42:38;9.90;99.90
55369;DHT22;41247;49.736;8.752;2023-02-16T20:46:19;9.80;99.90
55369;DHT22;41247;49.736;8.752;2023-02-16T20:50:00;9.80;99.90
55369;DHT22;41247;49.736;8.752;2023-02-16T20:53:41;9.80;99.90
55369;DHT22;41247;49.736;8.752;2023-02-16T20:57:21;9.80;99.90
55369;DHT22;41247;49.736;8.752;2023-02-16T21:01:09;9.80;99.90
55369;DHT22;41247;49.736;8.752;2023-02-16T21:04:51;9.80;99.90
55369;DHT22;41247;49.736;8.752;2023-02-16T21:08:31;9.80;99.90
55369;DHT22;41247;49.736;8.752;2023-02-16T21:12:12;9.80;99.90
55369;DHT22;41247;49.736;8.752;2023-02-16T21:15:52;9.90;99.90
55369;DHT22;41247;49.736;8.752;2023-02-16T21:19:33;9.80;99.90
55369;DHT22;41247;49.736;8.752;2023-02-16T21:23:14;9.80;99.90
55369;DHT22;41247;49.736;8.752;2023-02-16T21:26:54;9.90;99.90
55369;DHT22;41247;49.736;8.752;2023-02-16T21:30:35;9.90;99.90
55369;DHT22;41247;49.736;8.752;2023-02-16T21:34:15;9.90;99.90
55369;DHT22;41247;49.736;8.752;2023-02-16T21:37:56;9.90;99.90
55369;DHT22;41247;49.736;8.752;2023-02-16T21:41:37;9.90;99.90
55369;DHT22;41247;49.736;8.752;2023-02-16T21:45:17;9.80;99.90
55369;DHT22;41247;49.736;8.752;2023-02-16T21:48:58;9.80;99.90
55369;DHT22;41247;49.736;8.752;2023-02-16T21:52:39;9.80;99.90
55369;DHT22;41247;49.736;8.752;2023-02-16T22:00:12;9.80;99.90
55369;DHT22;41247;49.736;8.752;2023-02-16T22:03:53;9.90;99.90
55369;DHT22;41247;49.736;8.752;2023-02-16T22:07:34;9.90;99.90
55369;DHT22;41247;49.736;8.752;2023-02-16T22:11:15;9.90;99.90
55369;DHT22;41247;49.736;8.752;2023-02-16T22:14:55;10.00;99.90
55369;DHT22;41247;49.736;8.752;2023-02-16T22:18:37;9.90;99.90
55369;DHT22;41247;49.736;8.752;2023-02-16T22:22:17;9.90;99.90
55369;DHT22;41247;49.736;8.752;2023-02-16T22:25:58;10.00;99.90
55369;DHT22;41247;49.736;8.752;2023-02-16T22:29:38;10.00;99.90
55369;DHT22;41247;49.736;8.752;2023-02-16T22:33:19;10.00;99.90
55369;DHT22;41247;49.736;8.752;2023-02-16T22:37:00;10.00;99.90
55369;DHT22;41247;49.736;8.752;2023-02-16T22:40:40;9.80;99.90
55369;DHT22;41247;49.736;8.752;2023-02-16T22:44:21;9.80;99.90
55369;DHT22;41247;49.736;8.752;2023-02-16T22:48:01;9.70;99.90
55369;DHT22;41247;49.736;8.752;2023-02-16T22:51:42;9.70;99.90
55369;DHT22;41247;49.736;8.752;2023-02-16T22:55:23;9.70;99.90
55369;DHT22;41247;49.736;8.752;2023-02-16T22:59:03;9.70;99.90
55369;DHT22;41247;49.736;8.752;2023-02-16T23:02:44;9.40;99.90
55369;DHT22;41247;49.736;8.752;2023-02-16T23:06:33;9.20;99.90
55369;DHT22;41247;49.736;8.752;2023-02-16T23:10:15;9.30;99.90
55369;DHT22;41247;49.736;8.752;2023-02-16T23:13:55;9.20;99.90
55369;DHT22;41247;49.736;8.752;2023-02-16T23:17:36;9.10;99.90
55369;DHT22;41247;49.736;8.752;2023-02-16T23:21:20;8.90;99.90
55369;DHT22;41247;49.736;8.752;2023-02-16T23:25:02;8.70;99.90
55369;DHT22;41247;49.736;8.752;2023-02-16T23:28:44;8.60;99.90
55369;DHT22;41247;49.736;8.752;2023-02-16T23:32:24;8.70;99.90
55369;DHT22;41247;49.736;8.752;2023-02-16T23:36:05;8.80;99.90
55369;DHT22;41247;49.736;8.752;2023-02-16T23:39:46;9.00;99.90
55369;DHT22;41247;49.736;8.752;2023-02-16T23:43:27;9.10;99.90
55369;DHT22;41247;49.736;8.752;2023-02-16T23:47:08;9.30;99.90
55369;DHT22;41247;49.736;8.752;2023-02-16T23:50:50;9.30;99.90
55369;DHT22;41247;49.736;8.752;2023-02-16T23:54:31;9.30;99.90
55369;DHT22;41247;49.736;8.752;2023-02-16T23:58:12;9.30;99.90
